Who's Online

We have 1 guest online

Aviation WX

[source: ADDS]
METAR
KIAD 242252Z 00000KT 10SM FEW150 SCT200 BKN250 15/02 A2994 RMK AO2 SLP137 T01500022 =
TAF
KIAD 242052Z 2421/2524 31010KT P6SM SCT200 FM250000 31006KT P6SM FEW150 SCT200 FM252100 25007KT P6SM FEW040 =
SR / SS: 01:09 / 12:02 UTC (Washington-Dulles 2014-10-24)

JoomlaWatch Agent

Home Products and Services

This section describes Multilink Systems products and services

 

 

Under construction Please Standby